Time;durP1;ratioP1;P1;durP2;ratioP2;P2;SDS_P1;SDS_P2;PMS_P1;PMS_P2;Temp;Humidity;BMP_temperature;BMP_pressure;BME280_temperature;BME280_humidity;BME280_pressure;Samples;Min_cycle;Max_cycle;Signal;HPM_P1;HPM_P2
2022/01/21 00:01:14;;;;;;;3.28;0.85;;;1.10;99.90;;;;;;4946708;28;22980;-63
2022/01/21 00:03:42;;;;;;;2.65;1.00;;;1.10;99.90;;;;;;4934760;28;20051;-71
2022/01/21 00:06:09;;;;;;;3.08;0.85;;;1.10;99.90;;;;;;4946983;28;20073;-69
2022/01/21 00:08:42;;;;;;;3.05;0.60;;;1.10;99.90;;;;;;4949185;28;20375;-68
2022/01/21 00:11:11;;;;;;;2.70;1.02;;;1.00;99.90;;;;;;4931533;28;20062;-65
2022/01/21 00:13:38;;;;;;;2.33;1.17;;;1.00;99.90;;;;;;4930443;28;20058;-70
2022/01/21 00:16:13;;;;;;;2.65;0.90;;;1.10;99.90;;;;;;4941581;28;20136;-66
2022/01/21 00:18:45;;;;;;;3.30;0.90;;;1.00;99.90;;;;;;4931478;28;20721;-63
2022/01/21 00:32:14;;;;;;;6.05;1.17;;;1.00;99.90;;;;;;4888635;28;20073;-69
2022/01/21 00:34:41;;;;;;;4.85;1.23;;;1.00;99.90;;;;;;4890070;28;20081;-68
2022/01/21 00:37:08;;;;;;;5.32;1.27;;;1.00;99.90;;;;;;4883164;28;20876;-70
2022/01/21 00:39:36;;;;;;;6.68;1.75;;;1.00;99.90;;;;;;4899003;28;20191;-69
2022/01/21 00:44:31;;;;;;;3.55;0.55;;;0.90;99.90;;;;;;4884665;28;22628;-68
2022/01/21 00:46:58;;;;;;;4.40;0.85;;;0.90;99.90;;;;;;4894699;28;21064;-65
2022/01/21 00:49:26;;;;;;;6.97;1.35;;;0.90;99.90;;;;;;4896879;28;20169;-66
2022/01/21 00:51:53;;;;;;;2.58;0.90;;;0.90;99.90;;;;;;4892572;28;20204;-66
2022/01/21 00:54:20;;;;;;;5.15;0.65;;;0.90;99.90;;;;;;4893242;28;22110;-66
2022/01/21 00:56:58;;;;;;;4.45;1.85;;;0.90;99.90;;;;;;1627419;28;10022918;-68
2022/01/21 00:59:38;;;;;;;4.68;1.08;;;1.00;99.90;;;;;;3029545;28;10022533;-71
2022/01/21 01:02:05;;;;;;;4.63;1.67;;;1.00;99.90;;;;;;2200198;28;10002041;-69
2022/01/21 01:04:32;;;;;;;2.47;1.38;;;0.90;99.90;;;;;;4927286;28;20335;-68
2022/01/21 01:07:01;;;;;;;2.63;0.95;;;0.90;99.90;;;;;;4934422;28;20054;-64
2022/01/21 01:09:28;;;;;;;3.22;1.02;;;0.90;99.90;;;;;;4940565;28;20059;-64
2022/01/21 01:19:58;;;;;;;3.92;0.90;;;0.90;99.90;;;;;;4939548;28;20066;-67
2022/01/21 01:22:38;;;;;;;5.82;1.10;;;0.90;99.90;;;;;;4959862;28;20406;-69
2022/01/21 01:27:52;;;;;;;4.30;1.30;;;0.90;99.90;;;;;;4933676;28;20631;-64
2022/01/21 01:30:22;;;;;;;6.57;1.23;;;0.90;99.90;;;;;;4941355;28;20168;-65
2022/01/21 01:32:50;;;;;;;4.53;1.75;;;0.80;99.90;;;;;;4944699;28;20102;-68
2022/01/21 01:35:20;;;;;;;7.03;1.10;;;0.80;99.90;;;;;;4919381;28;20050;-65
2022/01/21 01:51:18;;;;;;;6.60;1.10;;;0.80;99.90;;;;;;4955622;28;20066;-65
2022/01/21 01:53:55;;;;;;;5.68;1.60;;;0.70;99.90;;;;;;4954510;28;20156;-75
2022/01/21 01:56:30;;;;;;;3.78;0.88;;;0.70;99.90;;;;;;4956154;28;20070;-67
2022/01/21 01:58:57;;;;;;;9.38;1.38;;;0.70;99.90;;;;;;4923717;28;20047;-71
2022/01/21 02:01:25;;;;;;;5.28;1.08;;;0.70;99.90;;;;;;4946098;28;20057;-69
2022/01/21 02:03:52;;;;;;;5.05;1.15;;;0.70;99.90;;;;;;4950843;28;20072;-73
2022/01/21 02:06:20;;;;;;;3.15;1.05;;;0.70;99.90;;;;;;4936066;28;20063;-66
2022/01/21 02:08:47;;;;;;;7.07;1.58;;;0.70;99.90;;;;;;4927334;28;20062;-66
2022/01/21 02:11:17;;;;;;;6.05;1.27;;;0.70;99.90;;;;;;4935662;28;20073;-68
2022/01/21 02:13:48;;;;;;;3.47;0.98;;;0.70;99.90;;;;;;4961528;28;20061;-68
2022/01/21 02:21:44;;;;;;;4.00;1.77;;;0.70;99.90;;;;;;4955353;28;20047;-68
2022/01/21 02:24:17;;;;;;;4.22;1.02;;;0.70;99.90;;;;;;4905532;28;20058;-65
2022/01/21 02:26:46;;;;;;;9.50;2.15;;;0.60;99.90;;;;;;4893763;28;20046;-64
2022/01/21 02:29:26;;;;;;;3.15;0.75;;;0.70;99.90;;;;;;4891908;28;20058;-66
2022/01/21 02:31:57;;;;;;;1.83;1.40;;;0.70;99.90;;;;;;4905094;28;20050;-69
2022/01/21 02:34:25;;;;;;;8.85;2.88;;;0.60;99.90;;;;;;4894935;28;20050;-70
2022/01/21 02:36:52;;;;;;;3.08;0.90;;;0.60;99.90;;;;;;4894058;28;20404;-71
2022/01/21 02:39:19;;;;;;;1.65;0.43;;;0.60;99.90;;;;;;4899750;28;20183;-69
2022/01/21 02:41:46;;;;;;;3.72;1.38;;;0.60;99.90;;;;;;4890968;28;20085;-66
2022/01/21 02:44:16;;;;;;;1.80;1.67;;;0.60;99.90;;;;;;4871674;28;20069;-72
2022/01/21 02:46:47;;;;;;;8.07;2.08;;;0.60;99.90;;;;;;4884211;28;20066;-66
2022/01/21 02:49:15;;;;;;;8.60;1.48;;;0.60;99.90;;;;;;4890933;28;20069;-72
2022/01/21 02:51:42;;;;;;;3.15;0.90;;;0.60;99.90;;;;;;4892984;28;20073;-71
2022/01/21 02:54:09;;;;;;;2.28;0.52;;;0.60;99.90;;;;;;4921751;28;20180;-66
2022/01/21 02:56:38;;;;;;;4.68;0.90;;;0.60;99.90;;;;;;4943977;28;20572;-64
2022/01/21 02:59:07;;;;;;;4.07;1.45;;;0.60;99.90;;;;;;4944011;28;20050;-64
2022/01/21 03:01:35;;;;;;;4.78;1.15;;;0.60;99.90;;;;;;4944551;28;20116;-71
2022/01/21 03:04:06;;;;;;;4.38;1.20;;;0.60;99.90;;;;;;4944583;28;20061;-64
2022/01/21 03:06:36;;;;;;;2.20;1.23;;;0.60;99.90;;;;;;4942873;28;20054;-67
2022/01/21 03:09:06;;;;;;;2.63;0.90;;;0.60;99.90;;;;;;4943189;28;20046;-66
2022/01/21 03:11:34;;;;;;;3.83;0.90;;;0.60;99.90;;;;;;4945005;28;20700;-66
2022/01/21 03:14:01;;;;;;;7.47;1.95;;;0.60;99.90;;;;;;4922317;28;21682;-73
2022/01/21 03:16:28;;;;;;;3.38;0.95;;;0.60;99.90;;;;;;4919859;28;20066;-71
2022/01/21 03:18:56;;;;;;;6.53;1.92;;;0.60;99.90;;;;;;4915824;28;20058;-67
2022/01/21 03:21:23;;;;;;;10.70;1.85;;;0.60;99.90;;;;;;4938109;28;20093;-65
2022/01/21 03:23:53;;;;;;;9.57;1.30;;;0.60;99.90;;;;;;4946975;28;20136;-66
2022/01/21 03:26:26;;;;;;;4.07;1.30;;;0.60;99.90;;;;;;4938934;28;20063;-67
2022/01/21 03:28:59;;;;;;;5.03;1.20;;;0.60;99.90;;;;;;4938486;28;20515;-67
2022/01/21 03:31:30;;;;;;;2.67;0.95;;;0.60;99.90;;;;;;4958218;28;20050;-68
2022/01/21 03:33:59;;;;;;;3.57;0.90;;;0.70;99.90;;;;;;4921029;28;20073;-65
2022/01/21 03:36:28;;;;;;;3.38;0.75;;;0.60;99.90;;;;;;4955025;28;20203;-68
2022/01/21 03:38:56;;;;;;;5.90;1.85;;;0.60;99.90;;;;;;4935547;28;21295;-66
2022/01/21 03:41:24;;;;;;;4.90;0.80;;;0.60;99.90;;;;;;4953798;28;20054;-64
2022/01/21 03:43:51;;;;;;;4.90;0.93;;;0.60;99.90;;;;;;4930004;28;20834;-71
2022/01/21 03:46:19;;;;;;;5.43;1.17;;;0.60;99.90;;;;;;4920828;28;20427;-67
2022/01/21 03:48:48;;;;;;;2.35;1.27;;;0.60;99.90;;;;;;4930677;28;20060;-66
2022/01/21 03:51:18;;;;;;;7.68;1.27;;;0.60;99.90;;;;;;4922152;28;20181;-68
2022/01/21 03:53:47;;;;;;;8.25;1.58;;;0.60;99.90;;;;;;4863030;28;20122;-70
2022/01/21 03:56:15;;;;;;;5.40;1.40;;;0.60;99.90;;;;;;4871828;28;20050;-72
2022/01/21 03:58:43;;;;;;;4.30;1.08;;;0.60;99.90;;;;;;4880105;28;20058;-64
2022/01/21 04:01:14;;;;;;;4.72;1.60;;;0.60;99.90;;;;;;4905636;28;20152;-70
2022/01/21 04:03:41;;;;;;;2.78;0.70;;;0.60;99.90;;;;;;4888495;28;20124;-73
2022/01/21 04:06:08;;;;;;;3.53;1.92;;;0.60;99.90;;;;;;4894000;28;20050;-70
2022/01/21 04:08:35;;;;;;;7.70;2.55;;;0.50;99.90;;;;;;4890508;28;20073;-72
2022/01/21 04:11:04;;;;;;;10.23;1.65;;;0.60;99.90;;;;;;4879102;28;20148;-66
2022/01/21 04:13:36;;;;;;;3.63;1.02;;;0.60;99.90;;;;;;4892175;28;21942;-68
2022/01/21 04:16:06;;;;;;;3.80;0.60;;;0.60;99.90;;;;;;4892142;28;20054;-64
2022/01/21 04:18:33;;;;;;;3.38;1.17;;;0.50;99.90;;;;;;4889269;28;21851;-64
2022/01/21 04:21:04;;;;;;;1.27;0.57;;;0.50;99.90;;;;;;4891276;28;20058;-66
2022/01/21 04:23:33;;;;;;;1.83;0.73;;;0.50;99.90;;;;;;4884885;28;20402;-73
2022/01/21 04:26:01;;;;;;;3.75;1.27;;;0.50;99.90;;;;;;4934562;28;21807;-66
2022/01/21 04:28:29;;;;;;;9.65;2.72;;;0.50;99.90;;;;;;4940485;28;22816;-67
2022/01/21 04:30:59;;;;;;;6.03;1.13;;;0.50;99.90;;;;;;4916294;28;20089;-67
2022/01/21 04:33:36;;;;;;;4.78;1.05;;;0.50;99.90;;;;;;4935795;28;20046;-68
2022/01/21 04:36:04;;;;;;;3.90;0.85;;;0.50;99.90;;;;;;4937781;28;20142;-66
2022/01/21 04:38:34;;;;;;;5.43;1.17;;;0.50;99.90;;;;;;4953540;28;20177;-64
2022/01/21 04:41:41;;;;;;;5.32;0.80;;;0.50;99.90;;;;;;4928369;28;20137;-67
2022/01/21 04:47:17;;;;;;;3.25;1.02;;;0.50;99.90;;;;;;4884342;28;22034;-65
2022/01/21 04:49:40;;;;;;;1.77;0.60;;;0.40;99.90;;;;;;959440;28;10002016;-65
2022/01/21 04:52:08;;;;;;;4.90;1.60;;;0.50;99.90;;;;;;4952667;28;20069;-70
2022/01/21 04:54:45;;;;;;;5.13;1.23;;;0.40;99.90;;;;;;4957834;28;20100;-66
2022/01/21 04:57:12;;;;;;;7.95;1.63;;;0.40;99.90;;;;;;4934863;28;20137;-64
2022/01/21 04:59:41;;;;;;;3.20;0.90;;;0.40;99.90;;;;;;4922829;28;20177;-67
2022/01/21 05:02:08;;;;;;;24.42;2.15;;;0.40;99.90;;;;;;4934530;28;20062;-66
2022/01/21 05:04:36;;;;;;;5.57;2.17;;;0.50;99.90;;;;;;4937592;28;21023;-64
2022/01/21 05:07:06;;;;;;;6.68;0.82;;;0.40;99.90;;;;;;4938895;28;20050;-67
2022/01/21 05:09:35;;;;;;;4.85;0.90;;;0.40;99.90;;;;;;4936280;28;20399;-65
2022/01/21 05:12:10;;;;;;;4.60;0.85;;;0.40;99.90;;;;;;4958174;28;20054;-69
2022/01/21 05:17:10;;;;;;;4.28;1.27;;;0.40;99.90;;;;;;4958848;28;20056;-66
2022/01/21 05:19:37;;;;;;;6.65;0.90;;;0.40;99.90;;;;;;4944258;28;20057;-64
2022/01/21 05:22:23;;;;;;;1.90;0.82;;;0.40;99.90;;;;;;4932536;28;20074;-66
2022/01/21 05:24:51;;;;;;;5.82;1.33;;;0.40;99.90;;;;;;4925831;28;20080;-67
2022/01/21 05:27:18;;;;;;;1.48;0.80;;;0.40;99.90;;;;;;4939984;28;20165;-66
2022/01/21 05:29:48;;;;;;;4.20;1.10;;;0.40;99.90;;;;;;4921414;28;20059;-65
2022/01/21 05:32:23;;;;;;;4.88;1.23;;;0.40;99.90;;;;;;4936296;28;20057;-66
2022/01/21 05:35:03;;;;;;;4.10;0.88;;;0.40;99.90;;;;;;4956236;28;22385;-67
2022/01/21 05:37:49;;;;;;;3.95;1.08;;;0.40;99.90;;;;;;4931839;28;20054;-71
2022/01/21 05:40:47;;;;;;;5.68;0.85;;;0.40;99.90;;;;;;4940663;28;20062;-67
2022/01/21 05:43:38;;;;;;;2.88;1.48;;;0.40;99.90;;;;;;4907037;28;20054;-73
2022/01/21 05:49:36;;;;;;;5.80;1.58;;;0.40;99.90;;;;;;4934120;28;20643;-69
2022/01/21 05:52:45;;;;;;;3.67;0.98;;;0.30;99.90;;;;;;4906978;28;20501;-70
2022/01/21 05:55:15;;;;;;;2.67;1.35;;;0.30;99.90;;;;;;4925561;28;20050;-67
2022/01/21 05:58:00;;;;;;;7.93;1.23;;;0.30;99.90;;;;;;4928151;28;20979;-69
2022/01/21 06:00:27;;;;;;;1.30;1.15;;;0.30;99.90;;;;;;4929766;28;20493;-70
2022/01/21 06:02:54;;;;;;;4.63;0.90;;;0.30;99.90;;;;;;4924952;28;20197;-69
2022/01/21 06:05:21;;;;;;;7.20;2.25;;;0.30;99.90;;;;;;4932039;28;21011;-68
2022/01/21 06:07:48;;;;;;;4.18;0.82;;;0.30;99.90;;;;;;4941486;28;20070;-69
2022/01/21 06:10:15;;;;;;;8.23;1.42;;;0.30;99.90;;;;;;4946978;28;20058;-71
2022/01/21 06:12:42;;;;;;;5.13;0.90;;;0.20;99.90;;;;;;4941271;28;20307;-68
2022/01/21 06:15:09;;;;;;;3.88;0.90;;;0.30;99.90;;;;;;4944267;28;22416;-68
2022/01/21 06:17:36;;;;;;;8.95;1.33;;;0.30;99.90;;;;;;4942563;28;20209;-68
2022/01/21 06:20:03;;;;;;;5.50;1.05;;;0.20;99.90;;;;;;4940920;28;22181;-68
2022/01/21 06:22:31;;;;;;;7.88;1.33;;;0.20;99.90;;;;;;4901206;28;20112;-71
2022/01/21 06:24:58;;;;;;;12.02;1.10;;;0.20;99.90;;;;;;4875766;28;20160;-67
2022/01/21 06:27:26;;;;;;;7.03;1.42;;;0.20;99.90;;;;;;4882724;28;20765;-68
2022/01/21 06:29:56;;;;;;;7.95;0.90;;;0.20;99.90;;;;;;4891005;28;20058;-67
2022/01/21 06:32:25;;;;;;;2.67;0.93;;;0.20;99.90;;;;;;4890021;28;21742;-65
2022/01/21 06:34:57;;;;;;;3.63;1.40;;;0.20;99.90;;;;;;4885536;28;20153;-66
2022/01/21 06:37:29;;;;;;;7.55;1.27;;;0.20;99.90;;;;;;4892635;28;21873;-67
2022/01/21 06:39:56;;;;;;;1.90;0.80;;;0.20;99.90;;;;;;4895470;28;20050;-66
2022/01/21 06:42:25;;;;;;;3.72;1.13;;;0.20;99.90;;;;;;4891395;28;20065;-62
2022/01/21 06:44:52;;;;;;;2.95;1.30;;;0.20;99.90;;;;;;4891479;28;21846;-66
2022/01/21 06:47:19;;;;;;;5.03;0.80;;;0.20;99.90;;;;;;4808615;28;22589;-70
2022/01/21 06:49:52;;;;;;;3.48;0.92;;;0.20;99.90;;;;;;1490097;28;10025605;-69
2022/01/21 06:52:20;;;;;;;7.65;1.17;;;0.20;99.90;;;;;;4914517;28;20261;-68
2022/01/21 06:54:48;;;;;;;5.28;1.95;;;0.20;99.90;;;;;;4922006;28;20054;-69
2022/01/21 06:57:15;;;;;;;2.28;1.05;;;0.20;99.90;;;;;;4928605;28;20181;-63
2022/01/21 06:59:42;;;;;;;3.08;0.77;;;0.20;99.90;;;;;;4924014;28;20485;-66
2022/01/21 07:02:09;;;;;;;4.85;1.05;;;0.10;99.90;;;;;;4937400;28;20333;-65
2022/01/21 07:04:36;;;;;;;4.18;1.23;;;0.10;99.90;;;;;;4937664;28;20058;-68
2022/01/21 07:07:04;;;;;;;3.47;1.23;;;0.10;99.90;;;;;;4926609;28;20177;-69
2022/01/21 07:09:31;;;;;;;2.35;0.90;;;0.10;99.90;;;;;;4931834;28;20681;-64
2022/01/21 07:11:58;;;;;;;3.40;1.13;;;0.10;99.90;;;;;;4934058;28;20189;-63
2022/01/21 07:14:25;;;;;;;3.92;2.10;;;0.10;99.90;;;;;;4938786;28;20051;-68
2022/01/21 07:16:52;;;;;;;5.35;1.33;;;0.10;99.90;;;;;;4937066;28;20141;-67
2022/01/21 07:19:19;;;;;;;8.05;3.40;;;0.10;99.90;;;;;;4931127;28;20169;-66
2022/01/21 07:21:46;;;;;;;9.65;1.30;;;0.10;99.90;;;;;;4941027;28;20665;-67
2022/01/21 07:24:13;;;;;;;3.72;1.20;;;0.10;99.90;;;;;;4932623;28;20090;-69
2022/01/21 07:26:40;;;;;;;6.25;1.15;;;0.10;99.90;;;;;;4942068;28;20042;-70
2022/01/21 07:29:07;;;;;;;6.05;1.15;;;0.10;99.90;;;;;;4942739;28;20180;-68
2022/01/21 07:31:34;;;;;;;4.13;0.88;;;0.10;99.90;;;;;;4942866;28;20085;-68
2022/01/21 07:34:04;;;;;;;4.32;1.00;;;0.10;99.90;;;;;;4939768;28;20047;-68
2022/01/21 07:36:32;;;;;;;5.90;0.90;;;0.10;99.90;;;;;;4938550;28;20145;-67
2022/01/21 07:39:00;;;;;;;6.80;1.58;;;0.00;99.90;;;;;;4942685;28;20483;-65
2022/01/21 07:41:27;;;;;;;2.35;1.00;;;0.00;99.90;;;;;;4940241;28;20058;-65
2022/01/21 07:43:54;;;;;;;13.38;1.13;;;0.00;99.90;;;;;;4941681;28;20054;-63
2022/01/21 07:46:22;;;;;;;7.60;1.00;;;0.00;99.90;;;;;;4943752;28;20136;-66
2022/01/21 07:48:49;;;;;;;8.95;1.13;;;0.00;99.90;;;;;;4939097;28;21732;-72
2022/01/21 07:51:16;;;;;;;5.88;0.93;;;0.00;99.90;;;;;;4942777;28;20062;-69
2022/01/21 07:53:43;;;;;;;10.25;1.58;;;0.00;99.90;;;;;;4887723;28;20132;-64
2022/01/21 07:56:10;;;;;;;3.40;1.20;;;0.00;99.90;;;;;;4873494;28;20058;-67
2022/01/21 07:58:37;;;;;;;3.28;1.40;;;0.00;99.90;;;;;;4871133;28;20055;-66
2022/01/21 08:01:04;;;;;;;4.80;1.38;;;0.00;99.90;;;;;;4873205;28;20265;-64
2022/01/21 08:03:31;;;;;;;4.78;1.00;;;0.00;99.90;;;;;;4869829;28;22765;-69
2022/01/21 08:05:58;;;;;;;3.05;1.08;;;0.00;99.90;;;;;;4864820;28;20063;-67
2022/01/21 08:08:26;;;;;;;3.30;0.80;;;0.00;99.90;;;;;;4875078;28;20162;-65
2022/01/21 08:10:54;;;;;;;3.95;1.20;;;0.00;99.90;;;;;;4873387;28;20088;-71
2022/01/21 08:13:21;;;;;;;6.90;1.60;;;0.00;99.90;;;;;;4876231;28;20101;-66
2022/01/21 08:15:48;;;;;;;5.40;0.93;;;0.00;99.90;;;;;;4874206;28;21152;-70
2022/01/21 08:18:15;;;;;;;4.47;1.25;;;0.00;99.90;;;;;;4875727;28;20055;-67
2022/01/21 08:20:43;;;;;;;5.63;2.55;;;0.00;99.90;;;;;;4856394;28;20110;-66
2022/01/21 08:23:11;;;;;;;2.67;0.60;;;0.00;99.90;;;;;;4892085;28;20053;-65
2022/01/21 08:25:40;;;;;;;2.28;0.80;;;0.00;99.90;;;;;;4914942;28;20051;-69
2022/01/21 08:28:07;;;;;;;6.93;1.98;;;-0.10;99.90;;;;;;4883029;28;20047;-71
2022/01/21 08:30:34;;;;;;;2.67;1.17;;;0.00;99.90;;;;;;4871849;28;22340;-70
2022/01/21 08:33:02;;;;;;;15.35;1.58;;;-0.10;99.90;;;;;;4875630;28;20081;-66
2022/01/21 08:35:30;;;;;;;4.40;0.63;;;-0.10;99.90;;;;;;4877245;28;20141;-71
2022/01/21 08:37:58;;;;;;;3.05;1.40;;;-0.10;99.90;;;;;;4872132;28;20051;-73
2022/01/21 08:40:26;;;;;;;5.47;1.30;;;-0.10;99.90;;;;;;4874533;28;20474;-64
2022/01/21 08:42:53;;;;;;;5.45;2.83;;;-0.10;99.90;;;;;;4873122;28;20141;-71
2022/01/21 08:45:21;;;;;;;6.47;1.27;;;-0.10;99.90;;;;;;4875304;28;20046;-68
2022/01/21 08:47:49;;;;;;;2.65;0.50;;;-0.10;99.90;;;;;;4800839;28;20046;-65
2022/01/21 08:50:20;;;;;;;6.82;2.50;;;-0.20;99.90;;;;;;954182;28;10001995;-68
2022/01/21 08:52:47;;;;;;;;;;;-0.20;99.90;;;;;;4859515;28;20055;-66
2022/01/21 08:55:19;;;;;;;9.93;2.70;;;-0.20;99.90;;;;;;4870517;28;20309;-72
2022/01/21 08:57:48;;;;;;;4.70;1.38;;;-0.10;99.90;;;;;;4865815;28;20150;-67
2022/01/21 09:00:18;;;;;;;8.48;1.45;;;-0.10;99.90;;;;;;4859953;28;20055;-68
2022/01/21 09:02:47;;;;;;;7.38;2.03;;;-0.10;99.90;;;;;;4877233;28;20051;-66
2022/01/21 09:05:15;;;;;;;7.93;1.10;;;-0.10;99.90;;;;;;4882399;28;20165;-71
2022/01/21 09:07:42;;;;;;;1.15;0.65;;;-0.10;99.90;;;;;;4879531;28;20129;-64
2022/01/21 09:10:10;;;;;;;4.13;0.98;;;0.00;99.90;;;;;;4880894;28;20521;-64
2022/01/21 09:12:37;;;;;;;6.72;0.95;;;-0.10;99.90;;;;;;4879089;28;20054;-70
2022/01/21 09:15:06;;;;;;;3.78;1.33;;;-0.10;99.90;;;;;;4879425;28;20051;-65
2022/01/21 09:17:35;;;;;;;15.75;3.55;;;-0.10;99.90;;;;;;4876761;28;20771;-66
2022/01/21 09:20:03;;;;;;;3.00;0.82;;;0.00;99.90;;;;;;4878688;28;20078;-72
2022/01/21 09:22:30;;;;;;;2.70;1.58;;;-0.10;99.90;;;;;;4878628;28;20201;-70
2022/01/21 09:24:57;;;;;;;2.65;0.85;;;-0.10;99.90;;;;;;4909585;28;20177;-67
2022/01/21 09:27:24;;;;;;;12.10;1.58;;;-0.10;99.90;;;;;;4926218;28;20058;-67
2022/01/21 09:29:50;;;;;;;4.55;1.40;;;0.00;99.90;;;;;;4925824;28;20051;-67
2022/01/21 09:32:17;;;;;;;4.72;0.90;;;-0.10;99.90;;;;;;4923568;28;20141;-68
2022/01/21 09:34:44;;;;;;;6.80;1.40;;;0.00;99.90;;;;;;4923164;28;20133;-65
2022/01/21 09:37:11;;;;;;;5.22;1.20;;;0.00;99.90;;;;;;4923380;28;20690;-71
2022/01/21 09:39:38;;;;;;;7.32;1.92;;;0.00;99.90;;;;;;4925195;28;20054;-64
2022/01/21 09:42:06;;;;;;;6.00;1.80;;;0.00;99.90;;;;;;4925347;28;20121;-65
2022/01/21 09:44:35;;;;;;;2.15;1.38;;;-0.10;99.90;;;;;;4920890;28;20089;-69
2022/01/21 09:47:04;;;;;;;2.83;1.10;;;-0.10;99.90;;;;;;4923081;28;20273;-67
2022/01/21 09:49:34;;;;;;;8.48;2.20;;;0.00;99.90;;;;;;4922289;28;20074;-69
2022/01/21 09:52:07;;;;;;;6.00;1.40;;;0.00;99.90;;;;;;4904821;28;20054;-68
2022/01/21 09:54:45;;;;;;;5.88;1.48;;;0.00;99.90;;;;;;4869961;28;20132;-71
2022/01/21 09:57:21;;;;;;;8.00;1.60;;;0.00;99.90;;;;;;4871424;28;20947;-71
2022/01/21 09:59:52;;;;;;;4.65;1.27;;;0.00;99.90;;;;;;4874364;28;20572;-71
2022/01/21 10:02:24;;;;;;;5.40;0.60;;;0.00;99.90;;;;;;4876643;28;20141;-68
2022/01/21 10:04:52;;;;;;;1.33;0.65;;;-0.10;99.90;;;;;;4875300;28;20058;-67
2022/01/21 10:07:21;;;;;;;2.65;2.42;;;-0.10;99.90;;;;;;4878104;28;20089;-66
2022/01/21 10:09:49;;;;;;;5.25;1.00;;;-0.10;99.90;;;;;;4878257;28;20047;-68
2022/01/21 10:12:16;;;;;;;4.15;1.65;;;-0.10;99.90;;;;;;4879293;28;20062;-66
2022/01/21 10:14:45;;;;;;;6.38;1.13;;;-0.10;99.90;;;;;;4875660;28;20141;-67
2022/01/21 10:17:14;;;;;;;4.25;0.63;;;-0.10;99.90;;;;;;4876000;28;20058;-68
2022/01/21 10:19:45;;;;;;;3.55;1.55;;;-0.10;99.90;;;;;;4875555;28;20217;-70
2022/01/21 10:22:17;;;;;;;3.50;1.30;;;-0.10;99.90;;;;;;4884777;28;20059;-65
2022/01/21 10:24:54;;;;;;;4.57;2.05;;;-0.10;99.90;;;;;;4926268;28;20121;-71
2022/01/21 10:27:30;;;;;;;1.30;0.60;;;-0.20;99.90;;;;;;4923710;28;20372;-69
2022/01/21 10:29:57;;;;;;;5.35;1.50;;;-0.10;99.90;;;;;;4920726;28;20058;-70
2022/01/21 10:32:36;;;;;;;7.78;1.60;;;-0.10;99.90;;;;;;4926980;28;20055;-65
2022/01/21 10:35:35;;;;;;;9.68;1.85;;;-0.10;99.90;;;;;;4922543;28;21533;-68
2022/01/21 10:38:28;;;;;;;4.43;1.23;;;-0.10;99.90;;;;;;4922562;28;20569;-69
2022/01/21 10:41:05;;;;;;;4.43;1.63;;;0.00;99.90;;;;;;4920896;28;20763;-68
2022/01/21 10:43:32;;;;;;;8.23;1.65;;;-0.10;99.90;;;;;;4924745;28;20162;-70
2022/01/21 10:46:01;;;;;;;3.72;0.95;;;-0.10;99.90;;;;;;4937226;28;20058;-71
2022/01/21 10:49:06;;;;;;;3.18;1.90;;;-0.10;99.90;;;;;;3403737;28;10022330;-65
2022/01/21 10:51:36;;;;;;;6.07;1.30;;;0.00;99.90;;;;;;3903771;28;10002027;-65
2022/01/21 10:54:14;;;;;;;8.35;1.42;;;0.00;99.90;;;;;;4909551;28;20482;-68
2022/01/21 10:57:02;;;;;;;3.05;1.02;;;0.10;99.90;;;;;;4921275;28;20074;-67
2022/01/21 10:59:53;;;;;;;3.80;1.60;;;0.10;99.90;;;;;;4927763;28;20055;-66
2022/01/21 11:02:54;;;;;;;4.55;0.95;;;-0.10;99.90;;;;;;4923706;28;20245;-69
2022/01/21 11:05:27;;;;;;;5.78;1.73;;;-0.10;99.90;;;;;;4927906;28;20668;-67
2022/01/21 11:08:04;;;;;;;2.55;1.45;;;-0.10;99.90;;;;;;4943715;28;20304;-66
2022/01/21 11:10:40;;;;;;;3.38;1.45;;;-0.10;99.90;;;;;;4928029;28;23067;-65
2022/01/21 11:13:12;;;;;;;4.97;1.15;;;-0.10;99.90;;;;;;4940462;28;20767;-69
2022/01/21 11:15:47;;;;;;;2.17;0.88;;;-0.10;99.90;;;;;;4939564;28;20083;-67
2022/01/21 11:18:30;;;;;;;3.65;0.88;;;-0.10;99.90;;;;;;4940282;28;20053;-66
2022/01/21 11:21:05;;;;;;;5.30;1.95;;;-0.10;99.90;;;;;;4938519;28;20059;-63
2022/01/21 11:23:51;;;;;;;1.65;0.70;;;-0.10;99.90;;;;;;4939105;28;20062;-65
2022/01/21 11:27:28;;;;;;;7.25;1.33;;;-0.10;99.90;;;;;;4923740;28;20065;-68
2022/01/21 11:29:55;;;;;;;4.43;1.10;;;-0.10;99.90;;;;;;4927039;28;20047;-67
2022/01/21 11:32:22;;;;;;;5.47;1.63;;;-0.20;99.90;;;;;;4933519;28;20078;-62
2022/01/21 11:34:49;;;;;;;7.65;1.40;;;-0.20;99.90;;;;;;4933418;28;20528;-65
2022/01/21 11:37:17;;;;;;;9.27;1.73;;;-0.20;99.90;;;;;;4935298;28;20061;-67
2022/01/21 11:39:45;;;;;;;5.43;1.65;;;-0.20;99.90;;;;;;4934127;28;21912;-68
2022/01/21 11:42:12;;;;;;;8.85;1.05;;;-0.20;99.90;;;;;;4938000;28;20272;-68
2022/01/21 11:44:51;;;;;;;5.88;1.38;;;-0.10;99.90;;;;;;4936333;28;20112;-65
2022/01/21 11:47:37;;;;;;;1.15;0.75;;;-0.10;99.90;;;;;;4939199;28;20075;-65
2022/01/21 11:50:05;;;;;;;2.55;1.83;;;-0.10;99.90;;;;;;4937378;28;21973;-68
2022/01/21 11:52:43;;;;;;;3.38;1.50;;;-0.10;99.90;;;;;;4937534;28;20765;-69
2022/01/21 11:55:30;;;;;;;4.65;1.67;;;-0.10;99.90;;;;;;4937121;28;20081;-66
2022/01/21 11:58:22;;;;;;;3.75;0.95;;;-0.10;99.90;;;;;;4937282;28;20102;-68
2022/01/21 12:00:52;;;;;;;10.07;1.25;;;-0.10;99.90;;;;;;4940398;28;21835;-64
2022/01/21 12:03:23;;;;;;;5.83;1.40;;;-0.10;99.90;;;;;;4942236;28;20107;-66
2022/01/21 12:05:50;;;;;;;4.13;0.98;;;-0.10;99.90;;;;;;4941995;28;20515;-68
2022/01/21 12:08:44;;;;;;;6.35;1.10;;;-0.10;99.90;;;;;;4938698;28;21220;-68
2022/01/21 12:11:37;;;;;;;8.65;1.13;;;-0.10;99.90;;;;;;4944845;28;20752;-65
2022/01/21 12:14:30;;;;;;;5.25;0.98;;;-0.10;99.90;;;;;;4940166;28;20054;-64
2022/01/21 12:17:11;;;;;;;7.15;1.48;;;-0.10;99.90;;;;;;4891006;28;20077;-70
2022/01/21 12:19:40;;;;;;;4.40;1.40;;;-0.10;99.90;;;;;;4892223;28;21104;-70
2022/01/21 12:22:11;;;;;;;5.22;0.88;;;0.00;99.90;;;;;;4897943;28;20050;-64
2022/01/21 12:25:08;;;;;;;3.28;1.33;;;0.00;99.90;;;;;;4896626;28;20069;-70
2022/01/21 12:27:37;;;;;;;2.95;1.02;;;0.00;99.90;;;;;;4899221;28;20181;-67
2022/01/21 12:30:29;;;;;;;9.82;1.15;;;0.10;99.90;;;;;;4893831;28;20696;-62
2022/01/21 12:33:10;;;;;;;4.00;1.27;;;0.00;99.90;;;;;;4895656;28;20085;-67
2022/01/21 12:36:11;;;;;;;3.20;0.85;;;0.00;99.90;;;;;;4879756;28;20591;-70
2022/01/21 12:41:24;;;;;;;8.35;1.63;;;0.00;99.90;;;;;;4876987;28;20112;-68
2022/01/21 12:43:56;;;;;;;7.50;2.20;;;0.00;99.90;;;;;;4867151;28;20249;-68
2022/01/21 12:46:23;;;;;;;5.32;0.90;;;0.00;99.90;;;;;;4849936;28;20058;-68
2022/01/21 12:48:51;;;;;;;2.65;0.82;;;0.00;99.90;;;;;;4814802;28;20049;-71
2022/01/21 12:52:09;;;;;;;0.85;0.40;;;0.10;99.90;;;;;;1004391;28;10002015;-69
2022/01/21 12:57:33;;;;;;;8.48;1.30;;;0.10;99.90;;;;;;4896630;28;20174;-69
2022/01/21 13:00:08;;;;;;;6.95;1.10;;;0.10;99.90;;;;;;4863879;28;21039;-66
2022/01/21 13:02:36;;;;;;;3.42;1.60;;;0.10;99.90;;;;;;4893655;28;20168;-70
2022/01/21 13:05:10;;;;;;;3.30;1.15;;;0.10;99.90;;;;;;4880606;28;20109;-70
2022/01/21 13:08:14;;;;;;;9.35;1.45;;;0.20;99.90;;;;;;4889317;28;20089;-64
2022/01/21 13:10:41;;;;;;;5.70;1.40;;;0.20;99.90;;;;;;4893773;28;20088;-68
2022/01/21 13:15:38;;;;;;;6.30;1.02;;;0.10;99.90;;;;;;4943841;28;20217;-65
2022/01/21 13:18:09;;;;;;;6.07;0.90;;;0.10;99.90;;;;;;4945443;28;20054;-67
2022/01/21 13:20:41;;;;;;;2.05;1.02;;;0.10;99.90;;;;;;4924946;28;20093;-67
2022/01/21 13:23:08;;;;;;;4.70;0.98;;;0.10;99.90;;;;;;4935820;28;20145;-65
2022/01/21 13:25:36;;;;;;;5.18;2.60;;;0.00;99.90;;;;;;4948700;28;20074;-64
2022/01/21 13:28:05;;;;;;;1.85;1.00;;;0.10;99.90;;;;;;4937171;28;20042;-64
2022/01/21 13:30:36;;;;;;;2.75;1.45;;;0.10;99.90;;;;;;4950282;28;20116;-63
2022/01/21 13:33:10;;;;;;;3.03;0.77;;;0.10;99.90;;;;;;4956237;28;20054;-65
2022/01/21 13:35:43;;;;;;;4.43;1.15;;;0.10;99.90;;;;;;4948064;28;20046;-69
2022/01/21 13:38:15;;;;;;;3.50;1.25;;;0.10;99.90;;;;;;4961353;28;20058;-66
2022/01/21 13:40:46;;;;;;;2.17;1.02;;;0.00;99.90;;;;;;4960675;28;20065;-68
2022/01/21 13:43:21;;;;;;;1.90;0.95;;;0.00;99.90;;;;;;4945776;28;20054;-69
2022/01/21 13:46:01;;;;;;;1.77;1.00;;;0.00;99.90;;;;;;4910758;28;20069;-70
2022/01/21 13:48:32;;;;;;;2.95;0.52;;;0.00;99.90;;;;;;4913540;28;20077;-64
2022/01/21 13:51:01;;;;;;;5.88;1.58;;;0.00;99.90;;;;;;4912960;28;20050;-70
2022/01/21 13:53:32;;;;;;;3.42;1.20;;;0.00;99.90;;;;;;4916418;28;20136;-64
2022/01/21 13:56:02;;;;;;;4.15;0.60;;;0.00;99.90;;;;;;4903440;28;20124;-64
2022/01/21 13:58:34;;;;;;;6.38;0.90;;;0.00;99.90;;;;;;4907248;28;20054;-64
2022/01/21 14:01:04;;;;;;;3.55;0.98;;;0.00;99.90;;;;;;4904941;28;20146;-67
2022/01/21 14:03:36;;;;;;;2.55;0.80;;;0.00;99.90;;;;;;4907669;28;20164;-65
2022/01/21 14:06:19;;;;;;;4.47;1.05;;;0.00;99.90;;;;;;4911054;28;20566;-72
2022/01/21 14:08:47;;;;;;;2.70;0.60;;;0.00;99.90;;;;;;4907307;28;20494;-69
2022/01/21 14:11:27;;;;;;;5.72;0.80;;;0.00;99.90;;;;;;4906685;28;20165;-66
2022/01/21 14:14:07;;;;;;;3.17;0.75;;;0.00;99.90;;;;;;4907860;28;20078;-70
2022/01/21 14:16:46;;;;;;;3.88;1.42;;;0.00;99.90;;;;;;4943802;28;20046;-66